Northway Airport
PAOR : now visible

Aeroporto :











RITROVATECI SU...

 
LOGIN :

Iscrizione | Disclaimer

   EN    FR    IT 

 









Sommario :    VFR   VFR Marginale   IFR   IFR Intensivo   IFR Molto Intensivo
Visibilità : 
Base nubi : 
>= 8 km
>= 3000ft
5 / 8 km
1000 / 3000 ft
1500m / 5 km
500 / 1000 ft
800 / 1500m
200 / 500 ft
< 800m
< 200 ft
Simboli :   Temporali  Nebbia  Neve Forte  Precipitazioni Forti  Vento > 20 kt






- Altitudine del aeroporto : 1715 ft
- Codice IATA : ORT


PAOR - Northway

ULTIMO METAR :
  • 181153Z 00000KT 10SM OVC018 M03/M04 A2916 RMK AO2 SLP904 4/004 T10281039 11022 21028 53006 PNO

METARs OBSOLETI :
  • 181053Z 00000KT 10SM OVC020 M03/M04 A2916 RMK AO2 SLP902 T10281039 PNO
  • 180953Z 00000KT 10SM OVC018 M03/M04 A2915 RMK AO2 SLP900 T10281039 PNO

TAF PAOR
Valido dal 18 a 12 ore il 19 a 12 ore UTC


181123Z 1812/1912 00000KT P6SM -SN SCT015 OVC020
FM182200 VRB03KT P6SM VCSH OVC035



MetMap, La meteo Aeronautica in un colpo d'occhio ! - Copyright ORBIFLY Dicembre 2007 - Disclaimer

ORBIFLY MET'MAP TEAM :

Programmazione e sviluppo : Alexandra Zaïnal
Concezione e sviluppo : Baudouin d'Aumeries
Co-Programmazione e sviluppo : Marc-Olivier Méhu
Supporto tecnico e logistico : Manuel Goepfert
Aiuto per la traduzione : Arnaldo La Scala

Contatto : metmap@orbifly.com




FONTI E CREDITI :

   NOAA       Earth
Advisory